sensor_id;sensor_type;location;lat;lon;timestamp;P1;durP1;ratioP1;P2;durP2;ratioP2
19038;SDS011;9652;49.014;12.052;2022-09-24T00:01:33;4.23;;;3.70;;
19038;SDS011;9652;49.014;12.052;2022-09-24T00:04:03;4.37;;;3.97;;
19038;SDS011;9652;49.014;12.052;2022-09-24T00:06:33;4.87;;;4.33;;
19038;SDS011;9652;49.014;12.052;2022-09-24T00:09:06;6.43;;;3.70;;
19038;SDS011;9652;49.014;12.052;2022-09-24T00:11:34;3.77;;;3.40;;
19038;SDS011;9652;49.014;12.052;2022-09-24T00:14:02;5.03;;;4.30;;
19038;SDS011;9652;49.014;12.052;2022-09-24T00:16:31;5.30;;;3.90;;
19038;SDS011;9652;49.014;12.052;2022-09-24T00:18:59;4.63;;;3.83;;
19038;SDS011;9652;49.014;12.052;2022-09-24T00:21:28;5.53;;;4.07;;
19038;SDS011;9652;49.014;12.052;2022-09-24T00:23:58;3.90;;;3.60;;
19038;SDS011;9652;49.014;12.052;2022-09-24T00:26:27;4.07;;;3.67;;
19038;SDS011;9652;49.014;12.052;2022-09-24T00:29:15;5.97;;;3.87;;
19038;SDS011;9652;49.014;12.052;2022-09-24T00:31:45;7.17;;;3.73;;
19038;SDS011;9652;49.014;12.052;2022-09-24T00:34:13;3.63;;;3.23;;
19038;SDS011;9652;49.014;12.052;2022-09-24T00:36:40;4.67;;;4.23;;
19038;SDS011;9652;49.014;12.052;2022-09-24T00:39:08;3.80;;;3.40;;
19038;SDS011;9652;49.014;12.052;2022-09-24T00:41:36;4.53;;;4.17;;
19038;SDS011;9652;49.014;12.052;2022-09-24T00:47:13;3.87;;;3.50;;
19038;SDS011;9652;49.014;12.052;2022-09-24T00:49:50;5.43;;;4.13;;
19038;SDS011;9652;49.014;12.052;2022-09-24T00:52:21;4.33;;;3.43;;
19038;SDS011;9652;49.014;12.052;2022-09-24T00:54:48;4.37;;;3.97;;
19038;SDS011;9652;49.014;12.052;2022-09-24T00:57:15;3.97;;;3.67;;
19038;SDS011;9652;49.014;12.052;2022-09-24T00:59:44;5.33;;;4.17;;
19038;SDS011;9652;49.014;12.052;2022-09-24T01:02:11;5.03;;;4.63;;
19038;SDS011;9652;49.014;12.052;2022-09-24T01:04:39;4.37;;;3.97;;
19038;SDS011;9652;49.014;12.052;2022-09-24T01:07:06;4.37;;;3.97;;
19038;SDS011;9652;49.014;12.052;2022-09-24T01:09:33;4.20;;;3.80;;
19038;SDS011;9652;49.014;12.052;2022-09-24T01:12:01;6.50;;;5.10;;
19038;SDS011;9652;49.014;12.052;2022-09-24T01:14:42;4.07;;;3.33;;
19038;SDS011;9652;49.014;12.052;2022-09-24T01:17:28;4.33;;;4.00;;
19038;SDS011;9652;49.014;12.052;2022-09-24T01:23:44;4.40;;;4.00;;
19038;SDS011;9652;49.014;12.052;2022-09-24T01:26:56;4.10;;;3.13;;
19038;SDS011;9652;49.014;12.052;2022-09-24T01:29:36;3.40;;;3.10;;
19038;SDS011;9652;49.014;12.052;2022-09-24T01:32:18;4.07;;;3.67;;
19038;SDS011;9652;49.014;12.052;2022-09-24T01:34:56;4.30;;;3.90;;
19038;SDS011;9652;49.014;12.052;2022-09-24T01:37:27;5.20;;;3.97;;
19038;SDS011;9652;49.014;12.052;2022-09-24T01:39:59;4.23;;;3.83;;
19038;SDS011;9652;49.014;12.052;2022-09-24T01:42:29;4.50;;;4.10;;
19038;SDS011;9652;49.014;12.052;2022-09-24T01:45:02;4.10;;;3.70;;
19038;SDS011;9652;49.014;12.052;2022-09-24T01:47:32;5.33;;;4.17;;
19038;SDS011;9652;49.014;12.052;2022-09-24T01:50:04;4.97;;;4.47;;
19038;SDS011;9652;49.014;12.052;2022-09-24T01:52:34;4.50;;;4.00;;
19038;SDS011;9652;49.014;12.052;2022-09-24T01:55:09;3.97;;;3.57;;
19038;SDS011;9652;49.014;12.052;2022-09-24T01:57:42;3.90;;;3.60;;
19038;SDS011;9652;49.014;12.052;2022-09-24T02:00:15;3.53;;;3.23;;
19038;SDS011;9652;49.014;12.052;2022-09-24T02:02:47;4.03;;;3.53;;
19038;SDS011;9652;49.014;12.052;2022-09-24T02:05:23;4.40;;;4.00;;
19038;SDS011;9652;49.014;12.052;2022-09-24T02:08:00;4.53;;;3.63;;
19038;SDS011;9652;49.014;12.052;2022-09-24T02:10:36;4.47;;;4.07;;
19038;SDS011;9652;49.014;12.052;2022-09-24T02:13:12;4.33;;;3.93;;
19038;SDS011;9652;49.014;12.052;2022-09-24T02:15:45;4.10;;;3.70;;
19038;SDS011;9652;49.014;12.052;2022-09-24T02:18:18;4.27;;;3.83;;
19038;SDS011;9652;49.014;12.052;2022-09-24T02:20:50;5.13;;;3.93;;
19038;SDS011;9652;49.014;12.052;2022-09-24T02:23:18;5.80;;;4.10;;
19038;SDS011;9652;49.014;12.052;2022-09-24T02:25:48;4.20;;;3.80;;
19038;SDS011;9652;49.014;12.052;2022-09-24T02:28:22;4.80;;;4.30;;
19038;SDS011;9652;49.014;12.052;2022-09-24T02:30:52;5.00;;;4.43;;
19038;SDS011;9652;49.014;12.052;2022-09-24T02:33:26;4.63;;;4.23;;
19038;SDS011;9652;49.014;12.052;2022-09-24T02:36:15;5.33;;;4.20;;
19038;SDS011;9652;49.014;12.052;2022-09-24T02:38:42;4.93;;;4.43;;
19038;SDS011;9652;49.014;12.052;2022-09-24T02:41:10;4.43;;;4.07;;
19038;SDS011;9652;49.014;12.052;2022-09-24T02:43:39;4.67;;;4.27;;
19038;SDS011;9652;49.014;12.052;2022-09-24T02:46:07;4.53;;;4.20;;
19038;SDS011;9652;49.014;12.052;2022-09-24T02:48:35;5.33;;;4.07;;
19038;SDS011;9652;49.014;12.052;2022-09-24T02:51:02;4.77;;;4.30;;
19038;SDS011;9652;49.014;12.052;2022-09-24T02:53:30;6.23;;;4.60;;
19038;SDS011;9652;49.014;12.052;2022-09-24T02:55:58;5.27;;;4.07;;
19038;SDS011;9652;49.014;12.052;2022-09-24T02:58:26;5.57;;;4.40;;
19038;SDS011;9652;49.014;12.052;2022-09-24T03:00:54;4.60;;;4.20;;
19038;SDS011;9652;49.014;12.052;2022-09-24T03:03:23;4.90;;;3.73;;
19038;SDS011;9652;49.014;12.052;2022-09-24T03:05:51;5.10;;;4.60;;
19038;SDS011;9652;49.014;12.052;2022-09-24T03:08:19;4.70;;;4.30;;
19038;SDS011;9652;49.014;12.052;2022-09-24T03:10:48;4.70;;;4.20;;
19038;SDS011;9652;49.014;12.052;2022-09-24T03:13:16;4.80;;;4.30;;
19038;SDS011;9652;49.014;12.052;2022-09-24T03:15:44;5.10;;;4.60;;
19038;SDS011;9652;49.014;12.052;2022-09-24T03:18:11;4.60;;;4.20;;
19038;SDS011;9652;49.014;12.052;2022-09-24T03:20:40;4.50;;;4.10;;
19038;SDS011;9652;49.014;12.052;2022-09-24T03:23:07;4.27;;;3.93;;
19038;SDS011;9652;49.014;12.052;2022-09-24T03:25:34;4.47;;;4.17;;
19038;SDS011;9652;49.014;12.052;2022-09-24T03:28:01;4.20;;;3.80;;
19038;SDS011;9652;49.014;12.052;2022-09-24T03:30:28;4.33;;;3.93;;
19038;SDS011;9652;49.014;12.052;2022-09-24T03:33:13;4.77;;;4.10;;
19038;SDS011;9652;49.014;12.052;2022-09-24T03:35:42;4.10;;;3.80;;
19038;SDS011;9652;49.014;12.052;2022-09-24T03:38:09;4.40;;;4.00;;
19038;SDS011;9652;49.014;12.052;2022-09-24T03:40:36;4.50;;;4.10;;
19038;SDS011;9652;49.014;12.052;2022-09-24T03:43:03;4.83;;;4.03;;
19038;SDS011;9652;49.014;12.052;2022-09-24T03:45:30;4.80;;;4.40;;
19038;SDS011;9652;49.014;12.052;2022-09-24T03:47:57;4.13;;;3.73;;
19038;SDS011;9652;49.014;12.052;2022-09-24T03:50:24;4.30;;;3.90;;
19038;SDS011;9652;49.014;12.052;2022-09-24T03:52:52;4.47;;;4.17;;
19038;SDS011;9652;49.014;12.052;2022-09-24T03:55:20;7.47;;;4.57;;
19038;SDS011;9652;49.014;12.052;2022-09-24T03:57:47;4.93;;;4.40;;
19038;SDS011;9652;49.014;12.052;2022-09-24T04:00:14;4.73;;;4.33;;
19038;SDS011;9652;49.014;12.052;2022-09-24T04:02:41;4.30;;;3.90;;
19038;SDS011;9652;49.014;12.052;2022-09-24T04:05:10;4.67;;;4.20;;
19038;SDS011;9652;49.014;12.052;2022-09-24T04:07:37;3.77;;;3.47;;
19038;SDS011;9652;49.014;12.052;2022-09-24T04:10:07;4.50;;;4.10;;
19038;SDS011;9652;49.014;12.052;2022-09-24T04:12:35;4.43;;;4.03;;
19038;SDS011;9652;49.014;12.052;2022-09-24T04:15:02;6.67;;;4.60;;
19038;SDS011;9652;49.014;12.052;2022-09-24T04:17:31;4.43;;;4.07;;
19038;SDS011;9652;49.014;12.052;2022-09-24T04:19:58;4.07;;;3.70;;
19038;SDS011;9652;49.014;12.052;2022-09-24T04:22:26;4.10;;;3.70;;
19038;SDS011;9652;49.014;12.052;2022-09-24T04:24:53;4.67;;;4.20;;
19038;SDS011;9652;49.014;12.052;2022-09-24T04:27:23;4.67;;;4.27;;
19038;SDS011;9652;49.014;12.052;2022-09-24T04:29:50;4.93;;;4.43;;
19038;SDS011;9652;49.014;12.052;2022-09-24T04:32:18;4.97;;;4.43;;
19038;SDS011;9652;49.014;12.052;2022-09-24T04:34:46;4.60;;;4.10;;
19038;SDS011;9652;49.014;12.052;2022-09-24T04:37:14;5.43;;;4.27;;
19038;SDS011;9652;49.014;12.052;2022-09-24T04:39:41;4.97;;;4.57;;
19038;SDS011;9652;49.014;12.052;2022-09-24T04:42:08;6.60;;;4.40;;
19038;SDS011;9652;49.014;12.052;2022-09-24T04:44:36;4.47;;;4.07;;
19038;SDS011;9652;49.014;12.052;2022-09-24T04:47:04;4.33;;;3.93;;
19038;SDS011;9652;49.014;12.052;2022-09-24T04:49:32;5.23;;;4.73;;
19038;SDS011;9652;49.014;12.052;2022-09-24T04:52:00;6.90;;;4.10;;
19038;SDS011;9652;49.014;12.052;2022-09-24T04:54:29;4.90;;;4.17;;
19038;SDS011;9652;49.014;12.052;2022-09-24T04:56:57;4.67;;;4.10;;
19038;SDS011;9652;49.014;12.052;2022-09-24T04:59:24;5.13;;;4.63;;
19038;SDS011;9652;49.014;12.052;2022-09-24T05:01:52;5.33;;;4.83;;
19038;SDS011;9652;49.014;12.052;2022-09-24T05:04:19;5.03;;;4.50;;
19038;SDS011;9652;49.014;12.052;2022-09-24T05:06:46;5.63;;;4.00;;
19038;SDS011;9652;49.014;12.052;2022-09-24T05:09:14;5.07;;;4.30;;
19038;SDS011;9652;49.014;12.052;2022-09-24T05:11:41;5.00;;;4.30;;
19038;SDS011;9652;49.014;12.052;2022-09-24T05:14:08;6.57;;;4.67;;
19038;SDS011;9652;49.014;12.052;2022-09-24T05:16:35;4.33;;;3.93;;
19038;SDS011;9652;49.014;12.052;2022-09-24T05:19:03;4.93;;;4.50;;
19038;SDS011;9652;49.014;12.052;2022-09-24T05:21:30;4.67;;;4.07;;
19038;SDS011;9652;49.014;12.052;2022-09-24T05:23:57;5.00;;;4.43;;
19038;SDS011;9652;49.014;12.052;2022-09-24T05:26:24;7.43;;;4.50;;
19038;SDS011;9652;49.014;12.052;2022-09-24T05:29:09;4.67;;;4.20;;
19038;SDS011;9652;49.014;12.052;2022-09-24T05:31:37;4.40;;;3.93;;
19038;SDS011;9652;49.014;12.052;2022-09-24T05:34:05;4.30;;;3.90;;
19038;SDS011;9652;49.014;12.052;2022-09-24T05:36:33;5.07;;;4.20;;
19038;SDS011;9652;49.014;12.052;2022-09-24T05:39:00;4.87;;;4.37;;
19038;SDS011;9652;49.014;12.052;2022-09-24T05:41:28;5.07;;;4.57;;
19038;SDS011;9652;49.014;12.052;2022-09-24T05:43:55;5.83;;;4.50;;
19038;SDS011;9652;49.014;12.052;2022-09-24T05:46:23;5.17;;;4.50;;
19038;SDS011;9652;49.014;12.052;2022-09-24T05:48:51;5.33;;;4.77;;
19038;SDS011;9652;49.014;12.052;2022-09-24T05:51:19;5.13;;;4.63;;
19038;SDS011;9652;49.014;12.052;2022-09-24T05:53:46;5.40;;;4.67;;
19038;SDS011;9652;49.014;12.052;2022-09-24T05:56:14;5.03;;;4.53;;
19038;SDS011;9652;49.014;12.052;2022-09-24T05:58:41;4.77;;;4.23;;
19038;SDS011;9652;49.014;12.052;2022-09-24T06:01:08;5.90;;;4.87;;
19038;SDS011;9652;49.014;12.052;2022-09-24T06:03:35;5.47;;;4.43;;
19038;SDS011;9652;49.014;12.052;2022-09-24T06:06:03;5.40;;;4.53;;
19038;SDS011;9652;49.014;12.052;2022-09-24T06:08:32;4.80;;;4.30;;
19038;SDS011;9652;49.014;12.052;2022-09-24T06:10:59;4.83;;;4.33;;
19038;SDS011;9652;49.014;12.052;2022-09-24T06:13:29;4.77;;;4.27;;
19038;SDS011;9652;49.014;12.052;2022-09-24T06:15:59;7.37;;;4.20;;
19038;SDS011;9652;49.014;12.052;2022-09-24T06:18:27;4.60;;;4.20;;
19038;SDS011;9652;49.014;12.052;2022-09-24T06:20:59;4.47;;;4.10;;
19038;SDS011;9652;49.014;12.052;2022-09-24T06:23:27;5.10;;;4.13;;
19038;SDS011;9652;49.014;12.052;2022-09-24T06:25:56;6.00;;;4.90;;
19038;SDS011;9652;49.014;12.052;2022-09-24T06:28:23;5.83;;;4.63;;
19038;SDS011;9652;49.014;12.052;2022-09-24T06:30:51;5.30;;;4.70;;
19038;SDS011;9652;49.014;12.052;2022-09-24T06:33:19;7.47;;;4.83;;
19038;SDS011;9652;49.014;12.052;2022-09-24T06:35:47;5.63;;;4.60;;
19038;SDS011;9652;49.014;12.052;2022-09-24T06:38:15;5.67;;;5.00;;
19038;SDS011;9652;49.014;12.052;2022-09-24T06:40:44;5.13;;;4.63;;
19038;SDS011;9652;49.014;12.052;2022-09-24T06:43:15;5.80;;;4.83;;
19038;SDS011;9652;49.014;12.052;2022-09-24T06:45:43;5.13;;;4.17;;
19038;SDS011;9652;49.014;12.052;2022-09-24T06:48:11;5.83;;;4.40;;
19038;SDS011;9652;49.014;12.052;2022-09-24T06:50:40;5.37;;;4.00;;
19038;SDS011;9652;49.014;12.052;2022-09-24T06:53:10;5.60;;;4.47;;
19038;SDS011;9652;49.014;12.052;2022-09-24T06:55:38;6.80;;;4.90;;
19038;SDS011;9652;49.014;12.052;2022-09-24T06:58:06;7.67;;;4.70;;
19038;SDS011;9652;49.014;12.052;2022-09-24T07:00:37;5.63;;;4.73;;
19038;SDS011;9652;49.014;12.052;2022-09-24T07:03:05;4.53;;;3.87;;
19038;SDS011;9652;49.014;12.052;2022-09-24T07:05:39;5.10;;;4.60;;
19038;SDS011;9652;49.014;12.052;2022-09-24T07:08:06;5.97;;;4.73;;
19038;SDS011;9652;49.014;12.052;2022-09-24T07:10:33;4.70;;;4.03;;
19038;SDS011;9652;49.014;12.052;2022-09-24T07:13:01;7.73;;;4.27;;
19038;SDS011;9652;49.014;12.052;2022-09-24T07:15:29;4.93;;;4.00;;
19038;SDS011;9652;49.014;12.052;2022-09-24T07:17:57;6.03;;;4.97;;
19038;SDS011;9652;49.014;12.052;2022-09-24T07:20:24;5.50;;;4.47;;
19038;SDS011;9652;49.014;12.052;2022-09-24T07:22:52;4.97;;;4.43;;
19038;SDS011;9652;49.014;12.052;2022-09-24T07:25:20;5.00;;;4.43;;
19038;SDS011;9652;49.014;12.052;2022-09-24T07:27:48;4.93;;;4.40;;
19038;SDS011;9652;49.014;12.052;2022-09-24T07:30:15;5.30;;;4.80;;
19038;SDS011;9652;49.014;12.052;2022-09-24T07:32:42;5.00;;;4.47;;
19038;SDS011;9652;49.014;12.052;2022-09-24T07:35:11;7.57;;;4.53;;
19038;SDS011;9652;49.014;12.052;2022-09-24T07:37:38;6.40;;;4.50;;
19038;SDS011;9652;49.014;12.052;2022-09-24T07:40:05;6.77;;;5.20;;
19038;SDS011;9652;49.014;12.052;2022-09-24T07:42:34;6.90;;;5.23;;
19038;SDS011;9652;49.014;12.052;2022-09-24T07:45:01;5.63;;;4.70;;
19038;SDS011;9652;49.014;12.052;2022-09-24T07:47:29;7.17;;;5.30;;
19038;SDS011;9652;49.014;12.052;2022-09-24T07:49:56;6.73;;;4.97;;
19038;SDS011;9652;49.014;12.052;2022-09-24T07:52:24;5.67;;;4.70;;
19038;SDS011;9652;49.014;12.052;2022-09-24T07:54:51;6.50;;;4.70;;
19038;SDS011;9652;49.014;12.052;2022-09-24T07:57:19;5.20;;;4.70;;
19038;SDS011;9652;49.014;12.052;2022-09-24T07:59:46;5.63;;;5.03;;
19038;SDS011;9652;49.014;12.052;2022-09-24T08:02:16;6.03;;;4.70;;
19038;SDS011;9652;49.014;12.052;2022-09-24T08:04:43;5.20;;;4.53;;
19038;SDS011;9652;49.014;12.052;2022-09-24T08:07:12;5.13;;;4.70;;
19038;SDS011;9652;49.014;12.052;2022-09-24T08:09:40;6.63;;;4.43;;
19038;SDS011;9652;49.014;12.052;2022-09-24T08:12:07;5.00;;;4.50;;
19038;SDS011;9652;49.014;12.052;2022-09-24T08:14:35;5.60;;;4.60;;
19038;SDS011;9652;49.014;12.052;2022-09-24T08:17:02;5.50;;;4.80;;
19038;SDS011;9652;49.014;12.052;2022-09-24T08:19:29;5.17;;;4.67;;
19038;SDS011;9652;49.014;12.052;2022-09-24T08:21:57;5.60;;;4.63;;
19038;SDS011;9652;49.014;12.052;2022-09-24T08:24:24;6.50;;;4.67;;
19038;SDS011;9652;49.014;12.052;2022-09-24T08:26:53;6.27;;;4.60;;
19038;SDS011;9652;49.014;12.052;2022-09-24T08:29:20;8.17;;;4.73;;
19038;SDS011;9652;49.014;12.052;2022-09-24T08:31:47;4.97;;;4.37;;
19038;SDS011;9652;49.014;12.052;2022-09-24T08:34:14;7.67;;;5.23;;
19038;SDS011;9652;49.014;12.052;2022-09-24T08:36:41;5.37;;;4.47;;
19038;SDS011;9652;49.014;12.052;2022-09-24T08:39:08;4.77;;;4.33;;
19038;SDS011;9652;49.014;12.052;2022-09-24T08:41:43;5.90;;;4.50;;
19038;SDS011;9652;49.014;12.052;2022-09-24T08:44:23;5.03;;;4.43;;
19038;SDS011;9652;49.014;12.052;2022-09-24T08:47:15;6.10;;;4.40;;
19038;SDS011;9652;49.014;12.052;2022-09-24T08:50:00;4.90;;;4.27;;
19038;SDS011;9652;49.014;12.052;2022-09-24T08:52:36;4.67;;;4.20;;
19038;SDS011;9652;49.014;12.052;2022-09-24T08:55:16;8.60;;;5.10;;
19038;SDS011;9652;49.014;12.052;2022-09-24T08:57:53;5.97;;;4.57;;
19038;SDS011;9652;49.014;12.052;2022-09-24T09:00:39;4.50;;;4.10;;
19038;SDS011;9652;49.014;12.052;2022-09-24T09:03:20;5.43;;;4.83;;
19038;SDS011;9652;49.014;12.052;2022-09-24T09:06:02;5.67;;;4.60;;
19038;SDS011;9652;49.014;12.052;2022-09-24T09:08:37;5.63;;;4.60;;
19038;SDS011;9652;49.014;12.052;2022-09-24T09:11:18;4.43;;;4.03;;
19038;SDS011;9652;49.014;12.052;2022-09-24T09:13:53;4.40;;;4.00;;
19038;SDS011;9652;49.014;12.052;2022-09-24T09:16:27;7.43;;;4.50;;
19038;SDS011;9652;49.014;12.052;2022-09-24T09:19:02;5.63;;;4.63;;
19038;SDS011;9652;49.014;12.052;2022-09-24T09:21:36;4.40;;;4.00;;
19038;SDS011;9652;49.014;12.052;2022-09-24T09:24:11;6.13;;;4.57;;
19038;SDS011;9652;49.014;12.052;2022-09-24T09:26:43;5.17;;;4.30;;
19038;SDS011;9652;49.014;12.052;2022-09-24T09:29:15;5.03;;;4.43;;
19038;SDS011;9652;49.014;12.052;2022-09-24T09:31:46;5.43;;;4.43;;
19038;SDS011;9652;49.014;12.052;2022-09-24T09:34:27;4.87;;;3.77;;
19038;SDS011;9652;49.014;12.052;2022-09-24T09:37:13;4.23;;;3.83;;
19038;SDS011;9652;49.014;12.052;2022-09-24T09:39:53;4.90;;;4.23;;
19038;SDS011;9652;49.014;12.052;2022-09-24T09:42:34;4.97;;;3.97;;
19038;SDS011;9652;49.014;12.052;2022-09-24T09:45:11;4.80;;;4.17;;
19038;SDS011;9652;49.014;12.052;2022-09-24T09:47:58;5.23;;;4.00;;
19038;SDS011;9652;49.014;12.052;2022-09-24T09:50:28;5.03;;;4.13;;
19038;SDS011;9652;49.014;12.052;2022-09-24T09:53:02;6.93;;;4.10;;
19038;SDS011;9652;49.014;12.052;2022-09-24T09:55:31;4.80;;;3.90;;
19038;SDS011;9652;49.014;12.052;2022-09-24T09:58:09;7.13;;;4.47;;
19038;SDS011;9652;49.014;12.052;2022-09-24T10:00:44;5.17;;;4.07;;
19038;SDS011;9652;49.014;12.052;2022-09-24T10:03:24;5.60;;;4.40;;
19038;SDS011;9652;49.014;12.052;2022-09-24T10:05:56;5.40;;;4.27;;
19038;SDS011;9652;49.014;12.052;2022-09-24T10:08:26;5.37;;;4.50;;
19038;SDS011;9652;49.014;12.052;2022-09-24T10:10:55;4.23;;;3.83;;
19038;SDS011;9652;49.014;12.052;2022-09-24T10:13:24;5.90;;;4.13;;
19038;SDS011;9652;49.014;12.052;2022-09-24T10:15:53;5.33;;;3.93;;
19038;SDS011;9652;49.014;12.052;2022-09-24T10:18:27;4.87;;;4.37;;
19038;SDS011;9652;49.014;12.052;2022-09-24T10:20:59;4.43;;;3.73;;
19038;SDS011;9652;49.014;12.052;2022-09-24T10:23:33;5.07;;;4.33;;
19038;SDS011;9652;49.014;12.052;2022-09-24T10:26:04;4.73;;;4.33;;
19038;SDS011;9652;49.014;12.052;2022-09-24T10:28:33;6.40;;;4.47;;
19038;SDS011;9652;49.014;12.052;2022-09-24T10:31:25;4.33;;;3.77;;
19038;SDS011;9652;49.014;12.052;2022-09-24T10:33:58;9.00;;;4.67;;
19038;SDS011;9652;49.014;12.052;2022-09-24T10:36:27;4.87;;;4.37;;
19038;SDS011;9652;49.014;12.052;2022-09-24T10:39:01;6.57;;;3.77;;
19038;SDS011;9652;49.014;12.052;2022-09-24T10:41:30;4.40;;;4.00;;
19038;SDS011;9652;49.014;12.052;2022-09-24T10:43:59;6.20;;;4.27;;
19038;SDS011;9652;49.014;12.052;2022-09-24T10:49:47;4.67;;;3.90;;
19038;SDS011;9652;49.014;12.052;2022-09-24T10:52:41;4.23;;;3.83;;
19038;SDS011;9652;49.014;12.052;2022-09-24T10:55:15;4.97;;;4.47;;
19038;SDS011;9652;49.014;12.052;2022-09-24T10:57:58;5.17;;;4.53;;
19038;SDS011;9652;49.014;12.052;2022-09-24T11:00:36;4.87;;;4.40;;
19038;SDS011;9652;49.014;12.052;2022-09-24T11:03:19;4.87;;;4.40;;
19038;SDS011;9652;49.014;12.052;2022-09-24T11:06:08;8.30;;;3.87;;
19038;SDS011;9652;49.014;12.052;2022-09-24T11:08:57;4.40;;;3.80;;
19038;SDS011;9652;49.014;12.052;2022-09-24T11:11:40;4.00;;;3.57;;
19038;SDS011;9652;49.014;12.052;2022-09-24T11:14:28;6.90;;;4.30;;
19038;SDS011;9652;49.014;12.052;2022-09-24T11:17:21;6.63;;;4.60;;
19038;SDS011;9652;49.014;12.052;2022-09-24T11:20:05;4.83;;;4.10;;
19038;SDS011;9652;49.014;12.052;2022-09-24T11:22:50;8.60;;;4.33;;
19038;SDS011;9652;49.014;12.052;2022-09-24T11:25:38;5.10;;;4.30;;
19038;SDS011;9652;49.014;12.052;2022-09-24T11:28:20;5.20;;;4.20;;
19038;SDS011;9652;49.014;12.052;2022-09-24T11:31:14;5.97;;;4.97;;
19038;SDS011;9652;49.014;12.052;2022-09-24T11:33:57;6.63;;;4.77;;
19038;SDS011;9652;49.014;12.052;2022-09-24T11:36:47;6.33;;;4.83;;
19038;SDS011;9652;49.014;12.052;2022-09-24T11:39:41;5.93;;;5.13;;
19038;SDS011;9652;49.014;12.052;2022-09-24T11:42:29;5.77;;;4.47;;
19038;SDS011;9652;49.014;12.052;2022-09-24T11:45:17;5.40;;;4.60;;
19038;SDS011;9652;49.014;12.052;2022-09-24T11:48:15;6.17;;;5.10;;
19038;SDS011;9652;49.014;12.052;2022-09-24T11:51:19;7.10;;;4.43;;
19038;SDS011;9652;49.014;12.052;2022-09-24T11:54:01;6.43;;;4.77;;
19038;SDS011;9652;49.014;12.052;2022-09-24T11:56:37;5.63;;;4.67;;
19038;SDS011;9652;49.014;12.052;2022-09-24T11:59:12;8.23;;;4.77;;
19038;SDS011;9652;49.014;12.052;2022-09-24T12:01:53;5.63;;;4.47;;
19038;SDS011;9652;49.014;12.052;2022-09-24T12:04:33;6.80;;;5.33;;
19038;SDS011;9652;49.014;12.052;2022-09-24T12:07:17;5.37;;;4.73;;
19038;SDS011;9652;49.014;12.052;2022-09-24T12:09:54;5.97;;;5.20;;
19038;SDS011;9652;49.014;12.052;2022-09-24T12:12:32;6.90;;;5.70;;
19038;SDS011;9652;49.014;12.052;2022-09-24T12:15:06;7.97;;;5.67;;
19038;SDS011;9652;49.014;12.052;2022-09-24T12:17:44;7.47;;;5.67;;
19038;SDS011;9652;49.014;12.052;2022-09-24T12:20:19;6.03;;;5.17;;
19038;SDS011;9652;49.014;12.052;2022-09-24T12:22:51;8.33;;;6.03;;
19038;SDS011;9652;49.014;12.052;2022-09-24T12:25:25;7.37;;;5.30;;
19038;SDS011;9652;49.014;12.052;2022-09-24T12:27:59;7.23;;;5.30;;
19038;SDS011;9652;49.014;12.052;2022-09-24T12:30:28;6.93;;;5.60;;
19038;SDS011;9652;49.014;12.052;2022-09-24T12:33:21;6.97;;;5.70;;
19038;SDS011;9652;49.014;12.052;2022-09-24T12:36:01;6.50;;;5.57;;
19038;SDS011;9652;49.014;12.052;2022-09-24T12:38:37;7.50;;;6.27;;
19038;SDS011;9652;49.014;12.052;2022-09-24T12:41:16;7.37;;;5.83;;
19038;SDS011;9652;49.014;12.052;2022-09-24T12:43:54;8.03;;;6.57;;
19038;SDS011;9652;49.014;12.052;2022-09-24T12:46:32;6.07;;;5.03;;
19038;SDS011;9652;49.014;12.052;2022-09-24T12:49:16;8.53;;;6.30;;
19038;SDS011;9652;49.014;12.052;2022-09-24T12:51:52;9.00;;;6.30;;
19038;SDS011;9652;49.014;12.052;2022-09-24T12:54:23;8.10;;;6.30;;
19038;SDS011;9652;49.014;12.052;2022-09-24T12:57:04;10.47;;;6.13;;
19038;SDS011;9652;49.014;12.052;2022-09-24T12:59:46;8.43;;;5.93;;
19038;SDS011;9652;49.014;12.052;2022-09-24T13:02:17;7.70;;;5.97;;
19038;SDS011;9652;49.014;12.052;2022-09-24T13:05:02;7.97;;;5.97;;
19038;SDS011;9652;49.014;12.052;2022-09-24T13:07:56;7.30;;;5.53;;
19038;SDS011;9652;49.014;12.052;2022-09-24T13:10:27;7.63;;;6.03;;
19038;SDS011;9652;49.014;12.052;2022-09-24T13:12:57;13.13;;;6.80;;
19038;SDS011;9652;49.014;12.052;2022-09-24T13:15:33;6.93;;;6.23;;
19038;SDS011;9652;49.014;12.052;2022-09-24T13:18:18;8.20;;;6.33;;
19038;SDS011;9652;49.014;12.052;2022-09-24T13:21:01;8.47;;;5.90;;
19038;SDS011;9652;49.014;12.052;2022-09-24T13:23:32;8.40;;;6.03;;
19038;SDS011;9652;49.014;12.052;2022-09-24T13:26:12;8.77;;;6.67;;
19038;SDS011;9652;49.014;12.052;2022-09-24T13:28:53;8.63;;;7.13;;
19038;SDS011;9652;49.014;12.052;2022-09-24T13:31:26;8.57;;;6.27;;
19038;SDS011;9652;49.014;12.052;2022-09-24T13:34:10;7.07;;;5.83;;
19038;SDS011;9652;49.014;12.052;2022-09-24T13:36:46;11.03;;;6.70;;
19038;SDS011;9652;49.014;12.052;2022-09-24T13:39:22;8.20;;;6.53;;
19038;SDS011;9652;49.014;12.052;2022-09-24T13:41:58;7.10;;;6.40;;
19038;SDS011;9652;49.014;12.052;2022-09-24T13:44:34;7.97;;;6.63;;
19038;SDS011;9652;49.014;12.052;2022-09-24T13:47:10;11.33;;;7.30;;
19038;SDS011;9652;49.014;12.052;2022-09-24T13:49:42;9.53;;;6.23;;
19038;SDS011;9652;49.014;12.052;2022-09-24T13:52:14;7.83;;;6.13;;
19038;SDS011;9652;49.014;12.052;2022-09-24T13:54:54;10.60;;;6.57;;
19038;SDS011;9652;49.014;12.052;2022-09-24T13:57:27;7.83;;;6.23;;
19038;SDS011;9652;49.014;12.052;2022-09-24T14:00:11;11.07;;;6.60;;
19038;SDS011;9652;49.014;12.052;2022-09-24T14:02:52;8.43;;;6.63;;
19038;SDS011;9652;49.014;12.052;2022-09-24T14:05:27;8.00;;;6.50;;
19038;SDS011;9652;49.014;12.052;2022-09-24T14:08:02;9.27;;;7.10;;
19038;SDS011;9652;49.014;12.052;2022-09-24T14:10:34;7.80;;;6.50;;
19038;SDS011;9652;49.014;12.052;2022-09-24T14:13:05;12.30;;;7.60;;
19038;SDS011;9652;49.014;12.052;2022-09-24T14:18:35;7.07;;;6.33;;
19038;SDS011;9652;49.014;12.052;2022-09-24T14:21:04;8.90;;;6.60;;
19038;SDS011;9652;49.014;12.052;2022-09-24T14:23:37;9.27;;;6.33;;
19038;SDS011;9652;49.014;12.052;2022-09-24T14:26:16;7.83;;;6.37;;
19038;SDS011;9652;49.014;12.052;2022-09-24T14:28:53;9.00;;;6.53;;
19038;SDS011;9652;49.014;12.052;2022-09-24T14:31:23;7.27;;;6.13;;
19038;SDS011;9652;49.014;12.052;2022-09-24T14:33:51;7.87;;;6.60;;
19038;SDS011;9652;49.014;12.052;2022-09-24T14:36:18;8.80;;;6.80;;
19038;SDS011;9652;49.014;12.052;2022-09-24T14:38:55;10.17;;;8.00;;
19038;SDS011;9652;49.014;12.052;2022-09-24T14:41:27;11.30;;;8.17;;
19038;SDS011;9652;49.014;12.052;2022-09-24T14:43:58;11.63;;;8.10;;
19038;SDS011;9652;49.014;12.052;2022-09-24T14:46:28;8.87;;;7.43;;
19038;SDS011;9652;49.014;12.052;2022-09-24T14:49:05;11.20;;;7.77;;
19038;SDS011;9652;49.014;12.052;2022-09-24T14:51:51;8.53;;;7.57;;
19038;SDS011;9652;49.014;12.052;2022-09-24T14:54:28;9.40;;;7.63;;
19038;SDS011;9652;49.014;12.052;2022-09-24T14:57:08;8.33;;;7.53;;
19038;SDS011;9652;49.014;12.052;2022-09-24T14:59:37;10.53;;;7.20;;
19038;SDS011;9652;49.014;12.052;2022-09-24T15:02:12;10.13;;;8.03;;
19038;SDS011;9652;49.014;12.052;2022-09-24T15:04:46;10.80;;;7.47;;
19038;SDS011;9652;49.014;12.052;2022-09-24T15:07:18;10.10;;;7.23;;
19038;SDS011;9652;49.014;12.052;2022-09-24T15:09:50;10.87;;;8.03;;
19038;SDS011;9652;49.014;12.052;2022-09-24T15:12:21;10.83;;;7.97;;
19038;SDS011;9652;49.014;12.052;2022-09-24T15:14:55;10.23;;;7.90;;
19038;SDS011;9652;49.014;12.052;2022-09-24T15:17:28;11.37;;;7.77;;
19038;SDS011;9652;49.014;12.052;2022-09-24T15:19:58;11.30;;;8.37;;
19038;SDS011;9652;49.014;12.052;2022-09-24T15:22:27;11.97;;;7.90;;
19038;SDS011;9652;49.014;12.052;2022-09-24T15:24:56;11.47;;;8.50;;
19038;SDS011;9652;49.014;12.052;2022-09-24T15:27:25;10.30;;;7.73;;
19038;SDS011;9652;49.014;12.052;2022-09-24T15:29:54;14.77;;;9.10;;
19038;SDS011;9652;49.014;12.052;2022-09-24T15:32:24;13.90;;;8.87;;